createdAt,value
2022-11-27T00:01:22.087Z,15.37
2022-11-27T00:03:49.330Z,15.70
2022-11-27T00:06:19.168Z,14.73
2022-11-27T00:08:46.126Z,13.73
2022-11-27T00:11:19.082Z,15.37
2022-11-27T00:13:46.342Z,14.90
2022-11-27T00:16:14.364Z,14.40
2022-11-27T00:18:41.854Z,15.03
2022-11-27T00:21:23.997Z,13.97
2022-11-27T00:23:55.200Z,13.90
2022-11-27T00:26:22.698Z,13.40
2022-11-27T00:28:49.754Z,14.40
2022-11-27T00:31:22.605Z,13.90
2022-11-27T00:33:49.697Z,13.43
2022-11-27T00:36:16.490Z,13.63
2022-11-27T00:38:43.174Z,13.37
2022-11-27T00:41:15.010Z,12.47
2022-11-27T00:43:45.463Z,11.20
2022-11-27T00:46:14.064Z,11.27
2022-11-27T00:48:41.107Z,10.33
2022-11-27T00:51:10.175Z,10.23
2022-11-27T00:53:36.957Z,9.90
2022-11-27T00:56:04.421Z,10.30
2022-11-27T00:58:31.203Z,10.43
2022-11-27T01:01:03.039Z,9.57
2022-11-27T01:03:30.385Z,9.23
2022-11-27T01:05:57.165Z,9.33
2022-11-27T01:08:23.818Z,9.33
2022-11-27T01:10:54.703Z,9.40
2022-11-27T01:13:32.215Z,8.70
2022-11-27T01:16:07.372Z,8.77
2022-11-27T01:18:36.132Z,8.80
2022-11-27T01:21:03.313Z,8.97
2022-11-27T01:23:30.110Z,9.00
2022-11-27T01:25:56.999Z,8.30
2022-11-27T01:28:24.586Z,9.13
2022-11-27T01:30:51.728Z,8.17
2022-11-27T01:33:18.954Z,8.67
2022-11-27T01:36:00.491Z,8.20
2022-11-27T01:38:30.059Z,8.17
2022-11-27T01:41:02.219Z,8.13
2022-11-27T01:43:48.918Z,7.77
2022-11-27T01:46:29.949Z,7.30
2022-11-27T01:49:11.350Z,6.83
2022-11-27T01:51:50.084Z,7.10
2022-11-27T01:54:18.532Z,7.30
2022-11-27T01:56:48.757Z,7.00
2022-11-27T01:59:17.425Z,7.07
2022-11-27T02:01:44.038Z,7.23
2022-11-27T02:04:10.716Z,7.17
2022-11-27T02:06:37.325Z,6.90
2022-11-27T02:09:04.167Z,7.40
2022-11-27T02:11:46.378Z,7.20
2022-11-27T02:14:35.095Z,6.20
2022-11-27T02:17:21.269Z,7.17
2022-11-27T02:20:18.952Z,7.20
2022-11-27T02:23:17.662Z,7.10
2022-11-27T02:26:09.829Z,7.03
2022-11-27T02:28:57.270Z,6.60
2022-11-27T02:31:37.230Z,6.90
2022-11-27T02:34:33.585Z,6.70
2022-11-27T02:37:22.639Z,7.20
2022-11-27T02:40:10.993Z,6.40
2022-11-27T02:42:49.505Z,6.27
2022-11-27T02:45:24.825Z,6.17
2022-11-27T02:47:51.889Z,6.23
2022-11-27T02:50:22.553Z,6.77
2022-11-27T02:52:52.117Z,6.17
2022-11-27T02:55:24.977Z,5.60
2022-11-27T02:57:56.367Z,6.17
2022-11-27T03:00:23.415Z,6.33
2022-11-27T03:02:56.987Z,6.47
2022-11-27T03:05:27.377Z,6.27
2022-11-27T03:08:13.296Z,6.60
2022-11-27T03:11:06.687Z,6.97
2022-11-27T03:13:38.312Z,6.37
2022-11-27T03:16:39.846Z,5.97
2022-11-27T03:19:37.462Z,6.00
2022-11-27T03:22:04.854Z,5.93
2022-11-27T03:24:34.513Z,5.87
2022-11-27T03:27:02.032Z,6.47
2022-11-27T03:29:36.353Z,5.93
2022-11-27T03:32:04.130Z,5.77
2022-11-27T03:34:31.167Z,6.33
2022-11-27T03:36:57.730Z,5.60
2022-11-27T03:39:25.869Z,5.87
2022-11-27T03:42:01.447Z,6.33
2022-11-27T03:44:42.963Z,5.70
2022-11-27T03:47:28.394Z,5.97
2022-11-27T03:50:18.277Z,6.63
2022-11-27T03:53:29.324Z,6.37
2022-11-27T03:56:05.426Z,6.33
2022-11-27T03:58:41.103Z,6.10
2022-11-27T04:01:12.456Z,7.30
2022-11-27T04:03:39.103Z,6.30
2022-11-27T04:06:06.234Z,6.90
2022-11-27T04:08:32.902Z,6.70
2022-11-27T04:10:59.508Z,6.00
2022-11-27T04:13:26.151Z,6.87
2022-11-27T04:15:52.840Z,6.33
2022-11-27T04:18:19.468Z,6.33
2022-11-27T04:20:46.116Z,6.20
2022-11-27T04:23:12.761Z,6.30
2022-11-27T04:25:39.387Z,6.30
2022-11-27T04:28:05.971Z,6.57
2022-11-27T04:30:34.172Z,6.90
2022-11-27T04:33:00.732Z,6.53
2022-11-27T04:35:27.428Z,6.40
2022-11-27T04:37:56.360Z,6.83
2022-11-27T04:40:23.022Z,6.50
2022-11-27T04:42:50.615Z,6.83
2022-11-27T04:45:17.411Z,6.67
2022-11-27T04:47:44.018Z,6.03
2022-11-27T04:50:10.834Z,6.07
2022-11-27T04:52:37.472Z,6.30
2022-11-27T04:55:04.703Z,6.20
2022-11-27T04:57:31.284Z,6.50
2022-11-27T04:59:57.946Z,6.37
2022-11-27T05:02:24.665Z,6.10
2022-11-27T05:04:51.275Z,6.37
2022-11-27T05:07:18.042Z,5.90
2022-11-27T05:09:44.781Z,6.30
2022-11-27T05:12:11.443Z,6.70
2022-11-27T05:14:38.363Z,6.17
2022-11-27T05:17:05.174Z,6.77
2022-11-27T05:19:32.122Z,6.70
2022-11-27T05:21:59.149Z,7.07
2022-11-27T05:24:27.720Z,6.37
2022-11-27T05:26:54.649Z,6.70
2022-11-27T05:29:22.182Z,6.20
2022-11-27T05:31:49.030Z,5.87
2022-11-27T05:34:16.049Z,6.07
2022-11-27T05:36:42.708Z,6.33
2022-11-27T05:39:10.857Z,6.20
2022-11-27T05:41:38.938Z,5.83
2022-11-27T05:44:06.290Z,6.30
2022-11-27T05:46:33.585Z,6.20
2022-11-27T05:49:00.424Z,6.70
2022-11-27T05:51:27.072Z,5.80
2022-11-27T05:53:53.766Z,6.67
2022-11-27T05:56:20.465Z,6.63
2022-11-27T05:58:48.486Z,5.83
2022-11-27T06:01:17.061Z,6.53
2022-11-27T06:03:43.731Z,6.30
2022-11-27T06:06:14.120Z,6.93
2022-11-27T06:08:41.509Z,5.93
2022-11-27T06:11:20.505Z,6.83
2022-11-27T06:13:48.555Z,6.23
2022-11-27T06:16:17.818Z,7.20
2022-11-27T06:18:45.333Z,6.40
2022-11-27T06:21:14.487Z,6.80
2022-11-27T06:23:42.824Z,6.50
2022-11-27T06:26:14.974Z,6.80
2022-11-27T06:28:42.239Z,6.83
2022-11-27T06:31:18.028Z,6.60
2022-11-27T06:33:45.799Z,6.17
2022-11-27T06:36:12.461Z,6.50
2022-11-27T06:38:39.351Z,6.37
2022-11-27T06:41:08.949Z,6.17
2022-11-27T06:43:36.038Z,5.97
2022-11-27T06:46:04.114Z,6.33
2022-11-27T06:48:31.821Z,7.20
2022-11-27T06:51:03.157Z,6.83
2022-11-27T06:53:30.960Z,6.57
2022-11-27T06:55:57.823Z,6.07
2022-11-27T06:58:30.660Z,6.53
2022-11-27T07:01:03.437Z,6.47
2022-11-27T07:03:30.455Z,5.90
2022-11-27T07:06:00.664Z,6.23
2022-11-27T07:08:27.812Z,6.27
2022-11-27T07:10:54.465Z,6.20
2022-11-27T07:13:21.020Z,6.50
2022-11-27T07:15:47.585Z,6.10
2022-11-27T07:18:14.155Z,6.37
2022-11-27T07:20:40.784Z,6.33
2022-11-27T07:23:07.373Z,5.60
2022-11-27T07:25:34.000Z,5.80
2022-11-27T07:28:01.687Z,6.20
2022-11-27T07:30:28.349Z,6.60
2022-11-27T07:32:55.060Z,6.53
2022-11-27T07:35:21.643Z,6.57
2022-11-27T07:37:48.284Z,6.60
2022-11-27T07:40:15.249Z,6.87
2022-11-27T07:42:41.887Z,5.97
2022-11-27T07:45:09.161Z,7.07
2022-11-27T07:47:35.874Z,7.10
2022-11-27T07:50:02.665Z,7.13
2022-11-27T07:52:29.308Z,6.70
2022-11-27T07:54:55.909Z,6.60
2022-11-27T07:57:22.512Z,7.43
2022-11-27T07:59:49.186Z,6.83
2022-11-27T08:02:16.277Z,7.60
2022-11-27T08:04:43.386Z,7.03
2022-11-27T08:07:10.518Z,7.30
2022-11-27T08:09:37.875Z,7.63
2022-11-27T08:12:04.981Z,7.57
2022-11-27T08:14:31.758Z,8.17
2022-11-27T08:16:58.423Z,8.10
2022-11-27T08:19:25.358Z,8.10
2022-11-27T08:21:52.078Z,8.67
2022-11-27T08:24:18.747Z,8.13
2022-11-27T08:26:45.394Z,8.20
2022-11-27T08:29:12.449Z,7.57
2022-11-27T08:31:39.222Z,7.43
2022-11-27T08:34:06.025Z,8.23
2022-11-27T08:36:32.808Z,8.13
2022-11-27T08:38:59.403Z,7.63
2022-11-27T08:41:26.182Z,7.60
2022-11-27T08:43:53.016Z,7.33
2022-11-27T08:46:19.730Z,6.10
2022-11-27T08:48:46.378Z,7.63
2022-11-27T08:51:15.209Z,7.37
2022-11-27T08:53:45.376Z,7.03
2022-11-27T08:56:17.856Z,6.50
2022-11-27T08:58:45.171Z,7.23
2022-11-27T09:01:15.914Z,6.73
2022-11-27T09:03:42.938Z,7.23
2022-11-27T09:06:11.619Z,6.17
2022-11-27T09:08:39.278Z,7.10
2022-11-27T09:11:06.566Z,6.57
2022-11-27T09:13:36.765Z,6.67
2022-11-27T09:16:04.556Z,6.50
2022-11-27T09:18:31.347Z,6.47
2022-11-27T09:21:03.430Z,6.57
2022-11-27T09:23:30.481Z,5.93
2022-11-27T09:26:02.170Z,6.37
2022-11-27T09:28:31.633Z,5.87
2022-11-27T09:31:00.842Z,6.57
2022-11-27T09:33:29.795Z,6.63
2022-11-27T09:35:56.624Z,6.50
2022-11-27T09:38:26.018Z,6.33
2022-11-27T09:41:02.967Z,5.97
2022-11-27T09:43:34.282Z,6.10
2022-11-27T09:46:09.025Z,6.20
2022-11-27T09:48:39.913Z,5.80
2022-11-27T09:51:14.145Z,6.27
2022-11-27T09:53:50.231Z,5.90
2022-11-27T09:56:18.782Z,6.20
2022-11-27T09:58:56.986Z,5.93
2022-11-27T10:01:38.462Z,6.00
2022-11-27T10:04:12.845Z,5.90
2022-11-27T10:07:12.745Z,5.90
2022-11-27T10:10:24.271Z,6.63
2022-11-27T10:13:23.020Z,6.40
2022-11-27T10:16:09.236Z,5.90
2022-11-27T10:18:43.753Z,5.70
2022-11-27T10:21:21.227Z,5.67
2022-11-27T10:24:20.408Z,6.10
2022-11-27T10:26:48.934Z,5.87
2022-11-27T10:29:39.129Z,6.00
2022-11-27T10:32:32.814Z,6.40
2022-11-27T10:35:27.756Z,5.80
2022-11-27T10:38:05.071Z,6.43
2022-11-27T10:41:04.704Z,6.40
2022-11-27T10:43:38.828Z,6.33
2022-11-27T10:46:23.355Z,6.23
2022-11-27T10:48:52.645Z,7.00
2022-11-27T10:51:24.064Z,7.13
2022-11-27T10:53:55.400Z,7.10
2022-11-27T10:56:31.108Z,6.73
2022-11-27T10:59:09.390Z,6.73
2022-11-27T11:01:48.218Z,7.10
2022-11-27T11:04:42.530Z,6.40
2022-11-27T11:07:29.467Z,6.80
2022-11-27T11:09:56.632Z,7.30
2022-11-27T11:12:24.314Z,7.20
2022-11-27T11:14:59.198Z,6.70
2022-11-27T11:17:28.531Z,7.10
2022-11-27T11:19:55.335Z,6.70
2022-11-27T11:22:22.616Z,6.40
2022-11-27T11:24:52.099Z,7.00
2022-11-27T11:27:29.933Z,7.40
2022-11-27T11:29:59.198Z,7.03
2022-11-27T11:32:37.256Z,7.37
2022-11-27T11:35:10.106Z,7.50
2022-11-27T11:37:45.154Z,7.70
2022-11-27T11:40:16.192Z,7.50
2022-11-27T11:42:59.191Z,6.50
2022-11-27T11:45:31.331Z,6.87
2022-11-27T11:48:02.180Z,7.30
2022-11-27T11:50:43.470Z,7.37
2022-11-27T11:53:31.762Z,6.40
2022-11-27T11:56:13.560Z,7.60
2022-11-27T11:58:43.262Z,6.63
2022-11-27T12:01:31.139Z,7.27
2022-11-27T12:04:16.531Z,7.17
2022-11-27T12:07:04.663Z,7.40
2022-11-27T12:10:00.814Z,7.30
2022-11-27T12:12:45.938Z,6.83
2022-11-27T12:15:28.214Z,6.87
2022-11-27T12:18:03.462Z,6.87
2022-11-27T12:20:34.245Z,7.23
2022-11-27T12:23:37.700Z,6.57
2022-11-27T12:26:41.330Z,7.10
2022-11-27T12:29:07.854Z,7.03
2022-11-27T12:31:58.481Z,6.77
2022-11-27T12:34:30.881Z,6.70
2022-11-27T12:37:14.528Z,6.27
2022-11-27T12:39:56.257Z,6.43
2022-11-27T12:42:35.456Z,6.80
2022-11-27T12:45:15.305Z,6.47
2022-11-27T12:47:46.764Z,6.97
2022-11-27T12:50:27.194Z,6.20
2022-11-27T12:53:08.506Z,6.43
2022-11-27T12:55:36.481Z,6.50
2022-11-27T12:58:09.406Z,6.27
2022-11-27T13:00:41.006Z,6.40
2022-11-27T13:03:29.159Z,6.37
2022-11-27T13:06:09.676Z,6.00
2022-11-27T13:09:05.544Z,5.60
2022-11-27T13:11:39.494Z,5.57
2022-11-27T13:14:23.937Z,6.20
2022-11-27T13:16:54.794Z,5.87
2022-11-27T13:19:49.580Z,5.53
2022-11-27T13:22:27.306Z,6.60
2022-11-27T13:24:56.086Z,6.10
2022-11-27T13:27:27.127Z,6.57
2022-11-27T13:30:01.649Z,6.27
2022-11-27T13:32:28.196Z,6.40
2022-11-27T13:34:59.226Z,6.37
2022-11-27T13:37:38.309Z,7.07
2022-11-27T13:40:12.406Z,7.13
2022-11-27T13:42:45.309Z,7.93
2022-11-27T13:45:21.256Z,6.97
2022-11-27T13:47:49.149Z,6.67
2022-11-27T13:50:19.074Z,8.23
2022-11-27T13:52:59.816Z,7.43
2022-11-27T13:55:29.971Z,8.17
2022-11-27T13:57:59.312Z,7.67
2022-11-27T14:00:46.266Z,8.00
2022-11-27T14:03:24.528Z,7.73
2022-11-27T14:05:51.252Z,7.00
2022-11-27T14:08:25.675Z,7.73
2022-11-27T14:11:06.213Z,7.30
2022-11-27T14:13:40.934Z,8.30
2022-11-27T14:16:32.173Z,7.27
2022-11-27T14:19:01.360Z,7.77
2022-11-27T14:21:39.145Z,7.47
2022-11-27T14:24:44.106Z,7.93
2022-11-27T14:27:23.165Z,7.80
2022-11-27T14:29:51.165Z,8.10
2022-11-27T14:32:19.605Z,7.60
2022-11-27T14:34:50.592Z,8.30
2022-11-27T14:38:05.956Z,8.30
2022-11-27T14:40:33.513Z,7.93
2022-11-27T14:43:18.282Z,8.00
2022-11-27T14:45:51.367Z,8.00
2022-11-27T14:48:24.858Z,8.00
2022-11-27T14:50:54.035Z,8.00
2022-11-27T14:53:23.250Z,7.70
2022-11-27T14:55:53.158Z,7.97
2022-11-27T14:58:24.342Z,8.00
2022-11-27T15:01:20.797Z,8.23
2022-11-27T15:03:56.157Z,8.00
2022-11-27T15:06:24.686Z,7.40
2022-11-27T15:09:15.984Z,8.77
2022-11-27T15:11:55.144Z,8.30
2022-11-27T15:14:24.049Z,8.60
2022-11-27T15:16:52.719Z,8.17
2022-11-27T15:19:32.925Z,7.77
2022-11-27T15:21:59.824Z,7.70
2022-11-27T15:24:36.738Z,7.77
2022-11-27T15:27:19.075Z,7.47
2022-11-27T15:29:49.806Z,7.27
2022-11-27T15:32:23.688Z,7.20
2022-11-27T15:34:52.849Z,7.83
2022-11-27T15:37:24.374Z,7.80
2022-11-27T15:40:12.919Z,7.20
2022-11-27T15:42:40.995Z,7.50
2022-11-27T15:45:09.915Z,7.90
2022-11-27T15:47:37.603Z,7.63
2022-11-27T15:50:06.056Z,7.60
2022-11-27T15:52:33.298Z,7.77
2022-11-27T15:54:59.922Z,7.07
2022-11-27T15:57:26.564Z,8.23
2022-11-27T15:59:53.241Z,7.97
2022-11-27T16:02:19.875Z,7.63
2022-11-27T16:04:46.503Z,7.53
2022-11-27T16:07:13.109Z,8.37
2022-11-27T16:09:40.061Z,7.37
2022-11-27T16:12:06.973Z,7.50
2022-11-27T16:14:33.626Z,7.87
2022-11-27T16:17:01.282Z,8.10
2022-11-27T16:19:28.040Z,7.27
2022-11-27T16:21:54.754Z,7.87
2022-11-27T16:24:21.664Z,8.40
2022-11-27T16:26:48.280Z,8.77
2022-11-27T16:29:15.101Z,8.20
2022-11-27T16:31:41.819Z,7.70
2022-11-27T16:34:08.525Z,7.93
2022-11-27T16:36:35.350Z,8.23
2022-11-27T16:39:02.006Z,8.23
2022-11-27T16:41:28.633Z,7.60
2022-11-27T16:43:57.035Z,7.47
2022-11-27T16:46:26.829Z,7.90
2022-11-27T16:48:54.507Z,8.00
2022-11-27T16:51:29.623Z,8.80
2022-11-27T16:53:58.269Z,8.03
2022-11-27T16:56:27.552Z,7.93
2022-11-27T16:59:00.951Z,8.13
2022-11-27T17:01:32.257Z,8.27
2022-11-27T17:03:59.618Z,8.37
2022-11-27T17:06:29.123Z,8.13
2022-11-27T17:08:58.173Z,8.30
2022-11-27T17:11:27.832Z,8.03
2022-11-27T17:13:58.209Z,8.43
2022-11-27T17:16:25.297Z,8.03
2022-11-27T17:18:51.979Z,7.20
2022-11-27T17:21:24.183Z,7.90
2022-11-27T17:23:51.752Z,7.93
2022-11-27T17:26:22.145Z,7.73
2022-11-27T17:28:48.926Z,7.93
2022-11-27T17:31:18.570Z,7.67
2022-11-27T17:33:46.139Z,8.07
2022-11-27T17:36:13.369Z,8.97
2022-11-27T17:38:40.108Z,8.20
2022-11-27T17:41:10.230Z,8.53
2022-11-27T17:43:38.573Z,8.53
2022-11-27T17:46:10.178Z,8.60
2022-11-27T17:48:37.777Z,8.90
2022-11-27T17:51:05.661Z,8.47
2022-11-27T17:53:32.806Z,8.83
2022-11-27T17:56:06.596Z,9.23
2022-11-27T17:58:33.318Z,9.50
2022-11-27T18:01:00.386Z,8.03
2022-11-27T18:03:28.808Z,9.90
2022-11-27T18:05:56.669Z,7.97
2022-11-27T18:08:23.650Z,9.50
2022-11-27T18:10:50.394Z,9.00
2022-11-27T18:13:17.047Z,9.03
2022-11-27T18:15:44.056Z,8.77
2022-11-27T18:18:10.856Z,9.47
2022-11-27T18:20:37.524Z,9.90
2022-11-27T18:23:04.605Z,9.33
2022-11-27T18:25:31.581Z,8.93
2022-11-27T18:27:58.651Z,9.33
2022-11-27T18:30:25.812Z,8.90
2022-11-27T18:32:52.579Z,9.07
2022-11-27T18:35:19.312Z,10.53
2022-11-27T18:37:45.908Z,9.07
2022-11-27T18:40:12.932Z,9.17
2022-11-27T18:42:39.677Z,9.43
2022-11-27T18:45:16.072Z,10.53
2022-11-27T18:47:52.128Z,9.10
2022-11-27T18:50:18.827Z,9.90
2022-11-27T18:52:45.557Z,9.60
2022-11-27T18:55:12.691Z,9.50
2022-11-27T18:57:39.313Z,9.33
2022-11-27T19:00:06.742Z,9.67
2022-11-27T19:02:33.412Z,10.53
2022-11-27T19:05:00.200Z,9.33
2022-11-27T19:07:28.020Z,9.80
2022-11-27T19:09:54.746Z,9.43
2022-11-27T19:12:21.418Z,8.70
2022-11-27T19:14:48.688Z,9.77
2022-11-27T19:17:15.569Z,10.10
2022-11-27T19:19:57.461Z,9.33
2022-11-27T19:22:24.223Z,9.73
2022-11-27T19:24:50.997Z,9.60
2022-11-27T19:27:17.573Z,9.33
2022-11-27T19:29:44.377Z,10.10
2022-11-27T19:32:11.130Z,10.33
2022-11-27T19:34:37.809Z,9.30
2022-11-27T19:37:04.512Z,10.60
2022-11-27T19:39:31.132Z,9.83
2022-11-27T19:41:58.017Z,10.80
2022-11-27T19:44:24.827Z,10.03
2022-11-27T19:46:51.478Z,10.13
2022-11-27T19:49:18.696Z,10.70
2022-11-27T19:51:45.459Z,9.87
2022-11-27T19:54:13.499Z,9.67
2022-11-27T19:56:42.158Z,10.37
2022-11-27T19:59:10.225Z,9.47
2022-11-27T20:01:38.035Z,9.27
2022-11-27T20:04:05.314Z,9.10
2022-11-27T20:06:32.267Z,9.50
2022-11-27T20:09:01.298Z,9.63
2022-11-27T20:11:34.277Z,10.20
2022-11-27T20:14:04.285Z,10.07
2022-11-27T20:16:32.430Z,10.90
2022-11-27T20:19:00.110Z,9.40
2022-11-27T20:21:26.826Z,9.73
2022-11-27T20:23:55.545Z,10.73
2022-11-27T20:26:29.049Z,10.17
2022-11-27T20:28:58.907Z,10.53
2022-11-27T20:31:29.040Z,10.33
2022-11-27T20:33:58.232Z,9.70
2022-11-27T20:36:25.607Z,9.60
2022-11-27T20:38:53.788Z,9.10
2022-11-27T20:41:21.714Z,9.43
2022-11-27T20:43:50.641Z,10.20
2022-11-27T20:46:18.220Z,9.93
2022-11-27T20:48:51.926Z,9.87
2022-11-27T20:51:28.308Z,9.67
2022-11-27T20:53:58.001Z,8.47
2022-11-27T20:56:25.251Z,9.90
2022-11-27T20:58:51.959Z,9.80
2022-11-27T21:01:21.397Z,10.17
2022-11-27T21:03:51.098Z,8.83
2022-11-27T21:06:19.053Z,9.43
2022-11-27T21:08:46.122Z,9.93
2022-11-27T21:11:15.418Z,9.93
2022-11-27T21:13:42.345Z,10.03
2022-11-27T21:16:14.037Z,10.40
2022-11-27T21:18:40.979Z,9.80
2022-11-27T21:21:13.247Z,10.07
2022-11-27T21:23:41.872Z,10.30
2022-11-27T21:26:09.725Z,10.80
2022-11-27T21:28:36.513Z,11.03
2022-11-27T21:31:17.087Z,10.90
2022-11-27T21:33:48.614Z,10.60
2022-11-27T21:36:16.470Z,10.87
2022-11-27T21:38:43.795Z,10.97
2022-11-27T21:41:13.594Z,10.83
2022-11-27T21:43:42.694Z,11.57
2022-11-27T21:46:13.271Z,12.13
2022-11-27T21:48:44.099Z,11.40
2022-11-27T21:51:12.700Z,11.80
2022-11-27T21:53:40.602Z,11.40
2022-11-27T21:56:09.565Z,12.00
2022-11-27T21:58:37.658Z,11.03
2022-11-27T22:01:06.822Z,11.43
2022-11-27T22:03:36.562Z,12.33
2022-11-27T22:06:18.248Z,11.67
2022-11-27T22:08:47.579Z,11.90
2022-11-27T22:11:20.045Z,12.43
2022-11-27T22:13:46.760Z,11.73
2022-11-27T22:16:19.555Z,11.57
2022-11-27T22:18:46.613Z,12.17
2022-11-27T22:21:14.411Z,11.37
2022-11-27T22:23:41.717Z,11.47
2022-11-27T22:26:11.568Z,11.60
2022-11-27T22:28:38.760Z,10.87
2022-11-27T22:31:26.324Z,11.20
2022-11-27T22:33:53.033Z,11.50
2022-11-27T22:36:26.902Z,13.07
2022-11-27T22:38:55.002Z,11.30
2022-11-27T22:41:24.751Z,11.67
2022-11-27T22:43:52.023Z,11.73
2022-11-27T22:46:25.841Z,11.70
2022-11-27T22:48:58.152Z,12.20
2022-11-27T22:51:25.837Z,11.60
2022-11-27T22:53:52.538Z,11.97
2022-11-27T22:56:19.280Z,11.53
2022-11-27T22:58:46.067Z,11.57
2022-11-27T23:01:21.176Z,12.10
2022-11-27T23:03:47.912Z,11.03
2022-11-27T23:06:16.275Z,10.90
2022-11-27T23:08:44.637Z,12.17
2022-11-27T23:11:14.940Z,11.00
2022-11-27T23:13:46.330Z,11.90
2022-11-27T23:16:16.733Z,10.87
2022-11-27T23:18:43.456Z,11.17
2022-11-27T23:21:13.457Z,11.90
2022-11-27T23:23:40.493Z,12.13
2022-11-27T23:26:26.175Z,12.03
2022-11-27T23:28:53.807Z,11.43
2022-11-27T23:31:35.499Z,11.37
2022-11-27T23:34:07.182Z,11.23
2022-11-27T23:36:34.328Z,12.33
2022-11-27T23:39:02.422Z,12.10
2022-11-27T23:41:29.692Z,11.33
2022-11-27T23:43:56.740Z,12.27
2022-11-27T23:46:26.266Z,11.60
2022-11-27T23:48:57.332Z,10.97
2022-11-27T23:51:29.425Z,11.43
2022-11-27T23:53:56.170Z,11.70
2022-11-27T23:56:28.761Z,11.83
2022-11-27T23:58:56.349Z,12.43
